Time;durP1;ratioP1;P1;durP2;ratioP2;P2;SDS_P1;SDS_P2;PMS_P1;PMS_P2;Temp;Humidity;BMP_temperature;BMP_pressure;BME280_temperature;BME280_humidity;BME280_pressure;Samples;Min_cycle;Max_cycle;Signal;HPM_P1;HPM_P2
2023/04/04 00:05:32;;;;;;;;;;;;;;;11.70;37.68;100678.69;1364005;26;19982;-84
2023/04/04 00:08:40;;;;;;;;;;;;;;;11.59;37.75;100681.75;5001492;28;19906;-81
2023/04/04 00:11:30;;;;;;;;;;;;;;;11.53;38.20;100676.78;5000916;28;19902;-81
2023/04/04 00:14:22;;;;;;;;;;;;;;;11.37;38.36;100683.88;5000698;28;19902;-82
2023/04/04 00:17:14;;;;;;;;;;;;;;;11.31;38.91;100674.25;5014739;28;19922;-83
2023/04/04 00:20:06;;;;;;;;;;;;;;;11.23;38.55;100669.59;4987532;28;20386;-83
2023/04/04 00:23:00;;;;;;;;;;;;;;;11.25;38.83;100678.25;4995867;28;19930;-84
2023/04/04 00:25:57;;;;;;;;;;;;;;;11.27;38.84;100679.56;4990709;28;20387;-84
2023/04/04 00:28:55;;;;;;;;;;;;;;;11.34;38.74;100666.25;4990354;28;19926;-83
2023/04/04 00:31:51;;;;;;;;;;;;;;;11.36;38.69;100682.28;4976115;28;19926;-84
2023/04/04 00:34:56;;;;;;;;;;;;;;;11.32;38.85;100678.59;4990819;28;19926;-85
2023/04/04 00:37:52;;;;;;;;;;;;;;;11.33;39.18;100672.00;4977469;28;19930;-84
2023/04/04 00:40:47;;;;;;;;;;;;;;;11.40;38.61;100669.59;4978172;28;19927;-84
2023/04/04 00:43:41;;;;;;;;;;;;;;;11.32;39.28;100662.25;4986669;28;19930;-84
2023/04/04 00:46:41;;;;;;;;;;;;;;;11.24;39.75;100672.00;4989179;28;19926;-85
2023/04/04 00:49:36;;;;;;;;;;;;;;;11.22;39.58;100676.19;4991159;28;19922;-84
2023/04/04 00:56:29;;;;;;;;;;;;;;;11.23;39.98;100664.97;5324819;22;19933;-85
2023/04/04 00:59:21;;;;;;;;;;;;;;;11.19;39.27;100663.22;5018709;28;19925;-83
2023/04/04 01:02:11;;;;;;;;;;;;;;;11.19;39.28;100657.75;5016137;28;19925;-83
2023/04/04 01:05:03;;;;;;;;;;;;;;;11.12;39.23;100661.00;5017612;28;19925;-82
2023/04/04 01:07:57;;;;;;;;;;;;;;;11.03;39.48;100660.97;5014087;28;19925;-83
2023/04/04 01:10:50;;;;;;;;;;;;;;;10.97;40.01;100667.69;5018219;28;19929;-84
2023/04/04 01:13:42;;;;;;;;;;;;;;;10.88;40.03;100658.72;5015924;28;19926;-83
2023/04/04 01:16:34;;;;;;;;;;;;;;;10.79;40.00;100666.06;5007815;28;19926;-82
2023/04/04 01:19:31;;;;;;;;;;;;;;;10.79;40.15;100660.63;5012262;28;19926;-81
2023/04/04 01:22:24;;;;;;;;;;;;;;;10.80;40.18;100661.44;5012161;28;19925;-82
2023/04/04 01:25:15;;;;;;;;;;;;;;;10.82;40.75;100668.13;4997499;28;19926;-82
2023/04/04 01:28:08;;;;;;;;;;;;;;;10.85;41.17;100664.00;5019228;28;19925;-81
2023/04/04 01:31:01;;;;;;;;;;;;;;;10.84;40.42;100662.38;5006820;28;19926;-82
2023/04/04 01:33:55;;;;;;;;;;;;;;;10.77;40.35;100675.69;5021310;28;19925;-82
2023/04/04 01:36:48;;;;;;;;;;;;;;;10.91;39.63;100674.41;5039771;28;19910;-81
2023/04/04 01:39:43;;;;;;;;;;;;;;;10.91;39.49;100677.13;5040263;28;19909;-80
2023/04/04 01:42:36;;;;;;;;;;;;;;;10.55;40.50;100677.38;5043719;28;19925;-82
2023/04/04 01:45:29;;;;;;;;;;;;;;;10.61;40.40;100675.31;5041192;28;19910;-81
2023/04/04 01:48:22;;;;;;;;;;;;;;;10.61;40.67;100681.56;5040797;28;19929;-81
2023/04/04 01:51:15;;;;;;;;;;;;;;;10.50;40.80;100680.25;5043989;28;19910;-81
2023/04/04 01:54:04;;;;;;;;;;;;;;;10.49;41.36;100686.78;5041972;28;19921;-80
2023/04/04 01:56:56;;;;;;;;;;;;;;;10.44;41.48;100683.41;5040854;28;19925;-81
2023/04/04 01:59:48;;;;;;;;;;;;;;;10.47;40.78;100683.56;5043228;28;19910;-80
2023/04/04 02:20:17;;;;;;;;;;;;;;;10.29;41.55;100684.63;4584600;22;19920;-81
2023/04/04 02:23:09;;;;;;;;;;;;;;;10.36;41.48;100686.91;5043318;28;19909;-80
2023/04/04 02:26:01;;;;;;;;;;;;;;;10.44;41.35;100691.56;5049842;28;19909;-81
2023/04/04 02:28:53;;;;;;;;;;;;;;;10.34;41.79;100694.56;5056548;28;19914;-81
2023/04/04 02:31:45;;;;;;;;;;;;;;;10.36;41.47;100695.06;5056113;28;19902;-81
2023/04/04 02:34:37;;;;;;;;;;;;;;;10.31;41.69;100693.25;5021685;28;19910;-81
2023/04/04 02:40:47;;;;;;;;;;;;;;;10.16;42.15;100689.03;5046865;22;19916;-82
2023/04/04 02:43:39;;;;;;;;;;;;;;;9.89;42.77;100691.94;5048171;28;19906;-82
2023/04/04 02:46:33;;;;;;;;;;;;;;;9.55;42.54;100695.19;5048185;28;19902;-83
2023/04/04 02:49:51;;;;;;;;;;;;;;;9.47;43.39;100695.16;5048509;28;19901;-83
2023/04/04 02:52:43;;;;;;;;;;;;;;;9.67;43.12;100689.22;5048339;28;19909;-84
2023/04/04 02:55:37;;;;;;;;;;;;;;;9.74;42.98;100689.59;5043073;28;19905;-83
2023/04/04 02:59:03;;;;;;;;;;;;;;;9.70;43.27;100685.91;5043199;28;19913;-85
2023/04/04 03:01:55;;;;;;;;;;;;;;;9.62;43.81;100687.44;5044942;22;19913;-85
2023/04/04 03:04:48;;;;;;;;;;;;;;;9.57;43.36;100684.03;5025367;28;19906;-85
2023/04/04 03:07:37;;;;;;;;;;;;;;;9.23;43.73;100685.41;5026866;28;19906;-85
2023/04/04 03:10:33;;;;;;;;;;;;;;;9.23;44.14;100687.31;5028076;28;19902;-84
2023/04/04 03:13:21;;;;;;;;;;;;;;;9.32;44.30;100685.47;5028060;28;19902;-84
2023/04/04 03:16:12;;;;;;;;;;;;;;;9.32;44.41;100691.69;5008401;28;19906;-84
2023/04/04 03:19:09;;;;;;;;;;;;;;;9.44;44.05;100686.53;5036075;28;19910;-84
2023/04/04 03:21:57;;;;;;;;;;;;;;;9.44;44.16;100686.53;5000447;28;19914;-79
2023/04/04 03:24:46;;;;;;;;;;;;;;;9.43;43.92;100684.91;5030978;28;19934;-80
2023/04/04 03:27:38;;;;;;;;;;;;;;;9.33;44.03;100687.06;5001180;28;19914;-80
2023/04/04 03:30:30;;;;;;;;;;;;;;;9.25;43.81;100680.44;5035283;28;19914;-81
2023/04/04 03:33:22;;;;;;;;;;;;;;;9.07;43.99;100692.28;5007636;28;19910;-80
2023/04/04 03:36:15;;;;;;;;;;;;;;;8.93;44.76;100694.22;5065487;22;19926;-82
2023/04/04 03:39:08;;;;;;;;;;;;;;;8.98;44.46;100691.41;5018840;28;19922;-82
2023/04/04 03:42:00;;;;;;;;;;;;;;;9.05;44.44;100699.09;4997841;28;19918;-81
2023/04/04 03:44:52;;;;;;;;;;;;;;;9.10;44.61;100693.56;5007628;28;19922;-82
2023/04/04 03:47:50;;;;;;;;;;;;;;;9.14;44.66;100700.81;4980814;28;19918;-82
2023/04/04 03:50:42;;;;;;;;;;;;;;;9.11;44.24;100704.13;4987818;28;19922;-81
2023/04/04 03:53:34;;;;;;;;;;;;;;;9.06;44.28;100701.50;4986908;28;19918;-82
2023/04/04 03:56:26;;;;;;;;;;;;;;;9.04;44.62;100698.28;4988912;28;19922;-82
2023/04/04 03:59:16;;;;;;;;;;;;;;;8.77;45.30;100703.78;4997267;28;20378;-82
2023/04/04 04:02:09;;;;;;;;;;;;;;;8.66;45.56;100705.91;4997756;28;19918;-82
2023/04/04 04:04:58;;;;;;;;;;;;;;;8.84;45.18;100704.16;4977482;28;19918;-82
2023/04/04 04:07:50;;;;;;;;;;;;;;;8.75;45.21;100700.56;4982595;28;20297;-83
2023/04/04 04:10:42;;;;;;;;;;;;;;;8.73;45.46;100702.78;4985762;28;19922;-82
2023/04/04 04:13:34;;;;;;;;;;;;;;;8.63;45.65;100703.81;4994367;28;19918;-83
2023/04/04 04:16:26;;;;;;;;;;;;;;;8.57;46.09;100707.72;4990797;28;19922;-83
2023/04/04 04:19:18;;;;;;;;;;;;;;;8.54;46.69;100706.41;4995666;28;19918;-82
2023/04/04 04:22:10;;;;;;;;;;;;;;;8.61;46.29;100706.00;4991380;28;19918;-82
2023/04/04 04:25:00;;;;;;;;;;;;;;;8.49;46.83;100706.50;4979572;28;19930;-82
2023/04/04 04:27:52;;;;;;;;;;;;;;;8.56;46.82;100704.19;4986899;28;19922;-83
2023/04/04 04:30:41;;;;;;;;;;;;;;;8.59;46.54;100708.19;4989882;28;20401;-82
2023/04/04 04:33:33;;;;;;;;;;;;;;;8.47;46.86;100710.63;4980763;28;19918;-82
2023/04/04 04:36:26;;;;;;;;;;;;;;;8.26;47.44;100712.91;4982119;28;19922;-82
2023/04/04 04:39:34;;;;;;;;;;;;;;;8.38;47.11;100710.50;4981266;28;19918;-82
2023/04/04 04:42:47;;;;;;;;;;;;;;;8.54;46.16;100719.94;4976061;28;19918;-82
2023/04/04 04:45:42;;;;;;;;;;;;;;;8.54;45.22;100722.66;4996825;28;19918;-82
2023/04/04 04:48:31;;;;;;;;;;;;;;;8.59;44.22;100719.84;4980254;28;19918;-81
2023/04/04 04:51:24;;;;;;;;;;;;;;;8.53;43.70;100723.75;4997267;28;19918;-81
2023/04/04 04:54:16;;;;;;;;;;;;;;;8.56;43.15;100723.16;4961298;29;19919;-82
2023/04/04 04:57:10;;;;;;;;;;;;;;;8.43;43.78;100732.09;4961285;29;19922;-83
2023/04/04 05:00:01;;;;;;;;;;;;;;;8.45;43.30;100731.78;4967544;28;19938;-83
2023/04/04 05:02:55;;;;;;;;;;;;;;;8.35;43.20;100742.81;4987599;28;20294;-82
2023/04/04 05:05:53;;;;;;;;;;;;;;;8.32;42.44;100736.13;4972558;28;20297;-83
2023/04/04 05:08:45;;;;;;;;;;;;;;;8.33;41.42;100734.97;4975748;28;19918;-82
2023/04/04 05:11:47;;;;;;;;;;;;;;;8.34;41.71;100738.50;4972205;28;20386;-82
2023/04/04 05:14:39;;;;;;;;;;;;;;;8.45;41.06;100738.00;4981539;28;19918;-83
2023/04/04 05:17:31;;;;;;;;;;;;;;;8.54;39.20;100733.50;5001125;28;19922;-82
2023/04/04 05:20:26;;;;;;;;;;;;;;;8.62;38.82;100736.63;4985276;28;19918;-83
2023/04/04 05:23:21;;;;;;;;;;;;;;;8.72;37.97;100742.66;4994829;28;19918;-82
2023/04/04 05:26:14;;;;;;;;;;;;;;;8.77;37.20;100744.44;4994325;28;19918;-84
2023/04/04 05:29:06;;;;;;;;;;;;;;;8.78;36.74;100751.47;4981048;28;19918;-83
2023/04/04 05:32:00;;;;;;;;;;;;;;;8.90;37.02;100754.47;4981393;28;20389;-83
2023/04/04 05:34:50;;;;;;;;;;;;;;;8.92;36.42;100755.78;4990676;28;19917;-83
2023/04/04 05:37:43;;;;;;;;;;;;;;;8.98;36.45;100759.19;4987835;28;20370;-82
2023/04/04 05:40:32;;;;;;;;;;;;;;;9.08;37.35;100758.97;4996738;28;19918;-82
2023/04/04 05:43:24;;;;;;;;;;;;;;;9.07;35.48;100768.22;4979106;28;19918;-82
2023/04/04 05:46:28;;;;;;;;;;;;;;;9.18;35.06;100764.19;4984701;28;19918;-86
2023/04/04 05:49:20;;;;;;;;;;;;;;;9.25;34.49;100764.56;4990057;28;19918;-86
2023/04/04 05:52:18;;;;;;;;;;;;;;;9.29;34.90;100770.19;4989179;28;20386;-86
2023/04/04 05:55:08;;;;;;;;;;;;;;;9.42;35.07;100775.59;4989333;28;19918;-85
2023/04/04 05:58:00;;;;;;;;;;;;;;;9.52;33.97;100774.56;4985446;28;20461;-83
2023/04/04 06:01:07;;;;;;;;;;;;;;;9.64;33.85;100771.31;4975327;28;19918;-83
2023/04/04 06:03:59;;;;;;;;;;;;;;;9.79;34.50;100773.66;4978501;28;19919;-83
2023/04/04 06:06:52;;;;;;;;;;;;;;;9.94;33.23;100781.44;4975028;28;19922;-82
2023/04/04 06:09:44;;;;;;;;;;;;;;;10.11;32.87;100778.81;4979671;28;20298;-82
2023/04/04 06:12:33;;;;;;;;;;;;;;;10.25;32.37;100784.22;4963185;28;20286;-83
2023/04/04 06:15:23;;;;;;;;;;;;;;;13.08;40.22;100786.19;4962245;28;19918;-83
2023/04/04 06:18:15;;;;;;;;;;;;;;;14.09;31.43;100779.47;4982480;28;19923;-83
2023/04/04 06:21:04;;;;;;;;;;;;;;;13.75;31.62;100781.72;4963201;29;20306;-82
2023/04/04 06:23:54;;;;;;;;;;;;;;;13.46;30.37;100775.19;4982783;28;19918;-82
2023/04/04 06:26:43;;;;;;;;;;;;;;;13.41;29.45;100786.31;4960609;29;19919;-82
2023/04/04 06:29:35;;;;;;;;;;;;;;;13.34;28.83;100785.25;4961905;28;19918;-82
2023/04/04 06:32:28;;;;;;;;;;;;;;;13.32;28.02;100780.09;4986909;28;19919;-83
2023/04/04 06:35:20;;;;;;;;;;;;;;;13.31;27.96;100786.69;4991009;28;19919;-82
2023/04/04 06:38:15;;;;;;;;;;;;;;;13.43;27.24;100780.50;4961417;28;19922;-84
2023/04/04 06:41:08;;;;;;;;;;;;;;;12.44;25.84;100791.72;4963539;28;19919;-80
2023/04/04 06:44:00;;;;;;;;;;;;;;;11.64;26.57;100795.19;4987927;28;19918;-80
2023/04/04 06:46:52;;;;;;;;;;;;;;;11.36;27.50;100791.97;4962225;28;19922;-79
2023/04/04 06:49:44;;;;;;;;;;;;;;;11.38;27.05;100792.44;4983320;28;19918;-79
2023/04/04 06:52:36;;;;;;;;;;;;;;;11.19;27.86;100788.41;4973777;28;19918;-79
2023/04/04 06:55:28;;;;;;;;;;;;;;;11.26;26.65;100780.59;4958158;29;19918;-79
2023/04/04 06:58:18;;;;;;;;;;;;;;;11.27;27.79;100791.16;4967727;28;19922;-80
2023/04/04 07:01:07;;;;;;;;;;;;;;;11.26;27.16;100792.28;4984011;28;19918;-80
2023/04/04 07:03:59;;;;;;;;;;;;;;;11.11;27.06;100793.53;4967195;28;19918;-79
2023/04/04 07:06:49;;;;;;;;;;;;;;;11.19;26.99;100791.94;4978193;28;19926;-80
2023/04/04 07:09:41;;;;;;;;;;;;;;;11.35;27.22;100786.84;4979079;28;19918;-81
2023/04/04 07:12:33;;;;;;;;;;;;;;;11.43;27.63;100786.03;4972981;28;19918;-81
2023/04/04 07:15:23;;;;;;;;;;;;;;;11.35;27.77;100786.84;4974239;28;19922;-82
2023/04/04 07:18:14;;;;;;;;;;;;;;;11.48;28.02;100791.31;4980667;28;19930;-81
2023/04/04 07:21:07;;;;;;;;;;;;;;;11.70;28.63;100793.09;4995597;28;19918;-80
2023/04/04 07:23:59;;;;;;;;;;;;;;;11.63;27.69;100793.56;4970900;28;19918;-81
2023/04/04 07:26:51;;;;;;;;;;;;;;;11.86;28.02;100794.25;4966631;28;19923;-81
2023/04/04 07:29:40;;;;;;;;;;;;;;;11.81;28.16;100795.22;4965343;29;19923;-81
2023/04/04 07:32:33;;;;;;;;;;;;;;;11.71;27.70;100790.06;4978072;28;19923;-81
2023/04/04 07:35:25;;;;;;;;;;;;;;;11.76;27.64;100803.56;4965129;29;19918;-83
2023/04/04 07:38:17;;;;;;;;;;;;;;;11.85;27.25;100801.63;4977537;28;19923;-82
2023/04/04 07:41:09;;;;;;;;;;;;;;;11.63;27.03;100799.03;4980051;28;20542;-82
2023/04/04 07:44:01;;;;;;;;;;;;;;;11.96;26.79;100780.31;4975006;28;19918;-82
2023/04/04 07:46:53;;;;;;;;;;;;;;;11.62;27.74;100802.09;4978965;28;19922;-82
2023/04/04 07:49:45;;;;;;;;;;;;;;;11.49;27.07;100807.34;4980824;28;19918;-83
2023/04/04 07:52:37;;;;;;;;;;;;;;;12.19;27.55;100800.00;4988834;28;19918;-81
2023/04/04 07:55:29;;;;;;;;;;;;;;;12.37;26.87;100796.09;4959636;28;19918;-81
2023/04/04 07:58:20;;;;;;;;;;;;;;;12.45;27.24;100800.72;4963519;28;19922;-81
2023/04/04 08:01:12;;;;;;;;;;;;;;;12.56;26.73;100801.16;4959562;28;20390;-82
2023/04/04 08:04:04;;;;;;;;;;;;;;;12.33;26.86;100800.59;4959621;28;19918;-81
2023/04/04 08:06:56;;;;;;;;;;;;;;;12.66;26.75;100793.44;4959477;29;19918;-81
2023/04/04 08:09:48;;;;;;;;;;;;;;;12.37;27.25;100807.00;4959892;28;20325;-81
2023/04/04 08:12:40;;;;;;;;;;;;;;;12.14;26.97;100795.50;4963843;28;19919;-81
2023/04/04 08:15:32;;;;;;;;;;;;;;;12.82;26.66;100791.75;4959410;29;19926;-81
2023/04/04 08:18:20;;;;;;;;;;;;;;;12.54;27.00;100795.25;4959575;29;19938;-80
2023/04/04 08:21:12;;;;;;;;;;;;;;;12.28;27.06;100803.50;4958733;28;19919;-78
2023/04/04 08:24:04;;;;;;;;;;;;;;;12.49;26.46;100801.69;4962684;28;20335;-80
2023/04/04 08:26:56;;;;;;;;;;;;;;;12.82;25.93;100802.69;4959291;28;19918;-79
2023/04/04 08:29:47;;;;;;;;;;;;;;;13.07;25.48;100798.22;4961224;28;19918;-79
2023/04/04 08:32:39;;;;;;;;;;;;;;;12.49;25.46;100809.88;4970818;28;19918;-80
2023/04/04 08:35:31;;;;;;;;;;;;;;;13.02;25.25;100794.88;4972300;28;19922;-79
2023/04/04 08:38:23;;;;;;;;;;;;;;;13.25;24.45;100801.69;4969056;28;19926;-79
2023/04/04 08:41:15;;;;;;;;;;;;;;;13.28;23.67;100792.81;4961973;28;19919;-79
2023/04/04 08:44:08;;;;;;;;;;;;;;;13.25;23.67;100796.22;4962081;29;19918;-79
2023/04/04 08:47:00;;;;;;;;;;;;;;;13.21;23.35;100798.81;4961332;28;19919;-79
2023/04/04 08:49:54;;;;;;;;;;;;;;;13.49;25.01;100799.13;4961091;29;19918;-79
2023/04/04 08:52:46;;;;;;;;;;;;;;;13.65;24.42;100802.84;4961372;29;19919;-79
2023/04/04 08:55:38;;;;;;;;;;;;;;;17.39;19.48;100808.28;4964769;28;19918;-81
2023/04/04 08:58:30;;;;;;;;;;;;;;;15.09;21.43;100802.78;4961516;29;19922;-80
2023/04/04 09:01:23;;;;;;;;;;;;;;;14.32;21.71;100803.69;4975375;28;19918;-80
2023/04/04 09:04:15;;;;;;;;;;;;;;;14.05;22.55;100810.56;4961464;29;19919;-80
2023/04/04 09:07:08;;;;;;;;;;;;;;;13.86;23.16;100807.50;4960903;28;19918;-79
2023/04/04 09:10:01;;;;;;;;;;;;;;;16.37;20.76;100803.78;4964179;28;19919;-81
2023/04/04 09:12:52;;;;;;;;;;;;;;;14.31;23.80;100789.22;4963389;29;19959;-81
2023/04/04 09:15:47;;;;;;;;;;;;;;;18.61;19.27;100805.69;4964542;29;19919;-81
2023/04/04 09:18:37;;;;;;;;;;;;;;;20.32;16.53;100806.16;4967691;28;19922;-80
2023/04/04 09:21:29;;;;;;;;;;;;;;;24.10;13.94;100808.47;4961967;29;19918;-80
2023/04/04 09:24:21;;;;;;;;;;;;;;;18.27;17.96;100804.66;4961045;29;19919;-80
2023/04/04 09:27:11;;;;;;;;;;;;;;;15.95;20.05;100795.97;4961477;29;19922;-81
2023/04/04 09:30:04;;;;;;;;;;;;;;;15.27;21.99;100787.69;4965534;28;19923;-80
2023/04/04 09:32:56;;;;;;;;;;;;;;;15.09;22.22;100794.56;4965237;28;19919;-78
2023/04/04 09:35:51;;;;;;;;;;;;;;;19.83;17.91;100800.84;4960308;29;19923;-79
2023/04/04 09:38:46;;;;;;;;;;;;;;;15.60;21.81;100795.75;4959538;29;19926;-78
2023/04/04 09:41:38;;;;;;;;;;;;;;;14.97;22.10;100789.91;4959613;29;19918;-78
2023/04/04 09:44:30;;;;;;;;;;;;;;;13.86;23.22;100796.56;4971381;28;19918;-78
2023/04/04 09:47:31;;;;;;;;;;;;;;;14.96;21.67;100788.28;4979955;28;19920;-80
2023/04/04 09:50:26;;;;;;;;;;;;;;;15.19;22.32;100788.59;4977918;28;19922;-80
2023/04/04 09:53:21;;;;;;;;;;;;;;;15.33;22.08;100789.06;4981513;28;19918;-80
2023/04/04 09:56:13;;;;;;;;;;;;;;;15.23;21.69;100789.53;4979150;28;19922;-80
2023/04/04 09:59:06;;;;;;;;;;;;;;;15.02;22.09;100782.59;4982820;28;19918;-80
2023/04/04 10:01:56;;;;;;;;;;;;;;;14.87;22.24;100786.81;4976302;28;19918;-80
2023/04/04 10:04:48;;;;;;;;;;;;;;;15.32;22.44;100797.63;4968623;28;20393;-79
2023/04/04 10:07:41;;;;;;;;;;;;;;;14.42;22.13;100790.41;4969280;28;19918;-80
2023/04/04 10:10:33;;;;;;;;;;;;;;;14.05;22.61;100784.00;4970913;28;20290;-80
2023/04/04 10:13:28;;;;;;;;;;;;;;;14.84;23.21;100792.97;4970683;28;19918;-79
2023/04/04 10:16:19;;;;;;;;;;;;;;;14.43;23.01;100791.19;4989752;28;20389;-79
2023/04/04 10:19:12;;;;;;;;;;;;;;;14.78;23.05;100775.19;4966332;28;19918;-81
2023/04/04 10:22:04;;;;;;;;;;;;;;;20.93;17.91;100786.97;4971847;28;19922;-79
2023/04/04 10:24:57;;;;;;;;;;;;;;;25.35;14.17;100787.66;4962757;28;19919;-80
2023/04/04 10:27:49;;;;;;;;;;;;;;;26.93;11.47;100791.53;4990088;28;19918;-81
2023/04/04 10:30:43;;;;;;;;;;;;;;;25.10;13.79;100790.72;4964225;29;19919;-81
2023/04/04 10:33:49;;;;;;;;;;;;;;;24.03;13.98;100789.84;4987154;28;19918;-80
2023/04/04 10:36:55;;;;;;;;;;;;;;;25.83;12.63;100789.53;4987307;28;20294;-80
2023/04/04 10:40:06;;;;;;;;;;;;;;;22.42;14.94;100781.38;4977996;28;19918;-79
2023/04/04 10:43:00;;;;;;;;;;;;;;;19.12;18.51;100775.00;4971125;28;19918;-80
2023/04/04 10:45:52;;;;;;;;;;;;;;;18.64;19.31;100780.16;4993327;28;19918;-80
2023/04/04 10:48:44;;;;;;;;;;;;;;;17.93;19.74;100775.28;4973367;28;19926;-80
2023/04/04 10:51:34;;;;;;;;;;;;;;;17.25;20.09;100766.75;4971004;28;19922;-80
2023/04/04 10:54:23;;;;;;;;;;;;;;;16.84;20.57;100774.44;4978659;28;19918;-80
2023/04/04 10:57:14;;;;;;;;;;;;;;;17.09;21.24;100766.78;4972444;28;19922;-80
2023/04/04 11:00:06;;;;;;;;;;;;;;;17.37;21.06;100763.88;4974400;28;19922;-80
2023/04/04 11:03:02;;;;;;;;;;;;;;;17.72;20.54;100764.66;4968655;28;20317;-80
2023/04/04 11:05:59;;;;;;;;;;;;;;;17.96;19.34;100760.81;4971831;28;19922;-79
2023/04/04 11:08:54;;;;;;;;;;;;;;;17.92;19.84;100762.69;4975534;28;20329;-85
2023/04/04 11:12:19;;;;;;;;;;;;;;;19.23;18.36;100756.66;4972539;28;19922;-78
2023/04/04 11:15:11;;;;;;;;;;;;;;;17.94;19.83;100758.41;4918450;29;19919;-78
2023/04/04 11:18:06;;;;;;;;;;;;;;;18.61;19.55;100758.84;4965994;28;19923;-78
2023/04/04 11:20:58;;;;;;;;;;;;;;;19.27;18.69;100763.03;4972715;28;19917;-78
2023/04/04 11:23:51;;;;;;;;;;;;;;;18.78;19.08;100760.31;4990917;28;19918;-78
2023/04/04 11:26:44;;;;;;;;;;;;;;;20.31;17.71;100755.66;4982907;28;20127;-78
2023/04/04 11:29:56;;;;;;;;;;;;;;;20.86;17.15;100752.97;4982489;28;19918;-79
2023/04/04 11:32:49;;;;;;;;;;;;;;;22.10;16.07;100759.16;5000755;28;19918;-79
2023/04/04 11:35:47;;;;;;;;;;;;;;;21.36;16.84;100748.56;4988200;28;19918;-78
2023/04/04 11:38:41;;;;;;;;;;;;;;;23.51;14.57;100746.47;4982135;28;19922;-78
2023/04/04 11:41:50;;;;;;;;;;;;;;;21.25;16.78;100748.50;4995050;28;19918;-77
2023/04/04 11:44:55;;;;;;;;;;;;;;;20.87;16.39;100752.59;4978647;28;19918;-78
2023/04/04 11:47:48;;;;;;;;;;;;;;;20.20;16.87;100749.19;4979297;28;19918;-78
2023/04/04 11:50:43;;;;;;;;;;;;;;;21.09;17.19;100741.66;4992818;28;19918;-78
2023/04/04 11:53:36;;;;;;;;;;;;;;;22.25;15.66;100746.13;4982215;28;20194;-78
2023/04/04 11:56:28;;;;;;;;;;;;;;;23.01;15.03;100741.78;4978124;28;19918;-78
2023/04/04 11:59:23;;;;;;;;;;;;;;;23.19;15.02;100743.75;4978002;28;19922;-78
2023/04/04 12:02:15;;;;;;;;;;;;;;;23.37;13.88;100738.91;4978482;28;19921;-79
2023/04/04 12:05:06;;;;;;;;;;;;;;;24.39;13.51;100739.63;4977798;28;19918;-78
2023/04/04 12:07:58;;;;;;;;;;;;;;;24.34;13.45;100735.28;4968291;28;19918;-77
2023/04/04 12:10:51;;;;;;;;;;;;;;;27.56;11.85;100730.91;4982411;28;19922;-78
2023/04/04 12:13:47;;;;;;;;;;;;;;;28.98;10.29;100743.59;4967756;28;19918;-78
2023/04/04 12:16:39;;;;;;;;;;;;;;;32.33;8.28;100730.78;4975574;28;20393;-78
2023/04/04 12:19:31;;;;;;;;;;;;;;;29.68;9.59;100733.22;4970046;28;19918;-78
2023/04/04 12:22:23;;;;;;;;;;;;;;;30.69;9.47;100729.66;4977107;28;19918;-79
2023/04/04 12:25:12;;;;;;;;;;;;;;;32.25;8.31;100732.34;4971212;28;19946;-79
2023/04/04 12:28:05;;;;;;;;;;;;;;;33.62;7.43;100732.47;4964804;28;19922;-79
2023/04/04 12:30:57;;;;;;;;;;;;;;;32.83;7.99;100731.53;4975364;28;19918;-79
2023/04/04 12:33:49;;;;;;;;;;;;;;;32.14;8.38;100715.88;4957928;29;19919;-79
2023/04/04 12:36:41;;;;;;;;;;;;;;;31.67;8.59;100718.13;4957360;29;19919;-79
2023/04/04 12:39:33;;;;;;;;;;;;;;;32.37;8.61;100713.75;4957984;29;19919;-79
2023/04/04 12:42:25;;;;;;;;;;;;;;;32.23;8.54;100712.31;4959335;29;19919;-79
2023/04/04 12:45:17;;;;;;;;;;;;;;;31.77;9.02;100694.44;4957417;29;19922;-79
2023/04/04 12:48:10;;;;;;;;;;;;;;;34.49;7.60;100714.59;4957692;29;19918;-79
2023/04/04 12:51:00;;;;;;;;;;;;;;;34.97;7.47;100709.69;4957849;29;20375;-78
2023/04/04 12:53:55;;;;;;;;;;;;;;;32.26;8.47;100708.56;4975245;28;19919;-79
2023/04/04 12:56:47;;;;;;;;;;;;;;;29.28;10.56;100695.53;4958406;29;19919;-79
2023/04/04 12:59:39;;;;;;;;;;;;;;;31.48;9.43;100697.53;4957544;29;19918;-79
2023/04/04 13:02:31;;;;;;;;;;;;;;;28.87;11.23;100685.88;4957350;29;19918;-79
2023/04/04 13:05:26;;;;;;;;;;;;;;;33.36;8.92;100693.34;4957935;29;19919;-79
2023/04/04 13:08:18;;;;;;;;;;;;;;;31.96;9.76;100678.41;4969214;28;19922;-79
2023/04/04 13:11:10;;;;;;;;;;;;;;;33.54;8.90;100695.34;4973811;28;19919;-81
2023/04/04 13:14:05;;;;;;;;;;;;;;;33.76;8.92;100687.47;4972052;28;19918;-80
2023/04/04 13:17:06;;;;;;;;;;;;;;;34.73;8.23;100685.09;4969505;28;19918;-80
2023/04/04 13:19:58;;;;;;;;;;;;;;;36.00;7.43;100682.25;4965825;28;19918;-80
2023/04/04 13:22:50;;;;;;;;;;;;;;;32.44;9.37;100677.66;4972770;28;19922;-80
2023/04/04 13:25:42;;;;;;;;;;;;;;;29.57;10.86;100661.88;4973835;28;19918;-79
2023/04/04 13:28:34;;;;;;;;;;;;;;;29.84;10.83;100665.03;4970829;28;20182;-80
2023/04/04 13:31:26;;;;;;;;;;;;;;;31.00;10.36;100665.94;4980109;28;19918;-80
2023/04/04 13:34:16;;;;;;;;;;;;;;;31.67;9.33;100661.88;4978136;28;19918;-80
2023/04/04 13:37:08;;;;;;;;;;;;;;;32.51;9.06;100656.88;4975223;28;20297;-80
2023/04/04 13:40:00;;;;;;;;;;;;;;;33.76;8.08;100653.63;4974461;28;19918;-81
2023/04/04 13:42:52;;;;;;;;;;;;;;;32.59;8.80;100652.47;4992531;28;19922;-80
2023/04/04 13:45:44;;;;;;;;;;;;;;;33.27;8.97;100653.88;4976663;28;19918;-80
2023/04/04 13:48:36;;;;;;;;;;;;;;;31.73;9.30;100643.19;4972039;28;19918;-80
2023/04/04 13:51:28;;;;;;;;;;;;;;;31.77;9.27;100636.16;4961509;29;20306;-80
2023/04/04 13:54:20;;;;;;;;;;;;;;;32.44;9.52;100645.91;4962348;29;20314;-80
2023/04/04 13:57:08;;;;;;;;;;;;;;;30.86;10.15;100634.78;4967691;28;19926;-79
2023/04/04 13:59:59;;;;;;;;;;;;;;;29.95;11.05;100633.88;4968135;28;20298;-80
2023/04/04 14:02:51;;;;;;;;;;;;;;;29.32;11.15;100629.00;4972347;28;19922;-80
2023/04/04 14:05:43;;;;;;;;;;;;;;;25.34;13.19;100621.06;4980742;28;19926;-79
2023/04/04 14:08:35;;;;;;;;;;;;;;;23.86;14.65;100619.31;4980175;28;20301;-79
2023/04/04 14:11:29;;;;;;;;;;;;;;;24.91;14.51;100612.44;4979746;28;19918;-79
2023/04/04 14:14:22;;;;;;;;;;;;;;;24.25;14.85;100615.47;4978538;28;19918;-79
2023/04/04 14:17:14;;;;;;;;;;;;;;;24.90;14.45;100616.41;4968008;28;20305;-79
2023/04/04 14:20:06;;;;;;;;;;;;;;;20.65;18.18;100611.84;4962275;28;19918;-79
2023/04/04 14:22:58;;;;;;;;;;;;;;;18.90;19.83;100608.53;4988564;28;19919;-79
2023/04/04 14:25:50;;;;;;;;;;;;;;;19.61;19.58;100604.69;4978235;28;19918;-79
2023/04/04 14:28:42;;;;;;;;;;;;;;;18.40;20.39;100612.53;4979360;28;19918;-79
2023/04/04 14:31:34;;;;;;;;;;;;;;;17.48;21.45;100611.72;4974248;28;19918;-79
2023/04/04 14:34:26;;;;;;;;;;;;;;;18.11;21.59;100608.53;4979101;28;20305;-79
2023/04/04 14:37:18;;;;;;;;;;;;;;;18.74;20.64;100616.22;4972286;28;19918;-79
2023/04/04 14:40:10;;;;;;;;;;;;;;;18.20;21.67;100608.28;4980703;28;19918;-79
2023/04/04 14:43:02;;;;;;;;;;;;;;;17.23;22.41;100615.13;4972335;28;19918;-79
2023/04/04 14:45:54;;;;;;;;;;;;;;;16.62;23.13;100608.38;4978023;28;19925;-79
2023/04/04 14:48:46;;;;;;;;;;;;;;;16.63;23.23;100598.97;4983826;28;19919;-78
2023/04/04 14:51:38;;;;;;;;;;;;;;;16.85;23.03;100600.25;4980317;28;19926;-78
2023/04/04 14:54:30;;;;;;;;;;;;;;;16.19;23.38;100612.06;4977325;28;19918;-79
2023/04/04 14:57:22;;;;;;;;;;;;;;;16.96;22.47;100611.47;4977835;28;19918;-78
2023/04/04 15:00:14;;;;;;;;;;;;;;;17.08;22.33;100609.34;4978770;28;19921;-79
2023/04/04 15:03:07;;;;;;;;;;;;;;;16.56;23.04;100603.47;4979406;28;20381;-79
2023/04/04 15:05:59;;;;;;;;;;;;;;;16.78;22.86;100608.31;4982745;28;19918;-79
2023/04/04 15:08:51;;;;;;;;;;;;;;;16.49;23.76;100603.31;4978508;28;19922;-79
2023/04/04 15:11:43;;;;;;;;;;;;;;;15.73;24.49;100610.09;4977637;28;20301;-78
2023/04/04 15:14:35;;;;;;;;;;;;;;;15.48;24.57;100598.44;4980707;28;20277;-78
2023/04/04 15:17:27;;;;;;;;;;;;;;;15.12;24.89;100601.34;4977187;28;19926;-78
2023/04/04 15:20:16;;;;;;;;;;;;;;;15.18;25.50;100605.44;4976896;28;19918;-78
2023/04/04 15:23:09;;;;;;;;;;;;;;;15.25;25.48;100608.34;4977036;28;20315;-80